sensor_id;sensor_type;location;lat;lon;timestamp;P1;durP1;ratioP1;P2;durP2;ratioP2
48181;SDS011;33976;47.436;18.876;2022-08-14T00:02:24;9.52;;;5.82;;
48181;SDS011;33976;47.436;18.876;2022-08-14T00:04:54;8.50;;;5.00;;
48181;SDS011;33976;47.436;18.876;2022-08-14T00:07:22;9.60;;;5.68;;
48181;SDS011;33976;47.436;18.876;2022-08-14T00:09:50;9.20;;;5.65;;
48181;SDS011;33976;47.436;18.876;2022-08-14T00:12:39;8.93;;;5.30;;
48181;SDS011;33976;47.436;18.876;2022-08-14T00:15:30;11.35;;;5.87;;
48181;SDS011;33976;47.436;18.876;2022-08-14T00:18:12;8.63;;;4.78;;
48181;SDS011;33976;47.436;18.876;2022-08-14T00:21:01;9.02;;;5.05;;
48181;SDS011;33976;47.436;18.876;2022-08-14T00:26:06;9.20;;;5.90;;
48181;SDS011;33976;47.436;18.876;2022-08-14T00:28:49;8.35;;;5.43;;
48181;SDS011;33976;47.436;18.876;2022-08-14T00:31:17;9.05;;;5.18;;
48181;SDS011;33976;47.436;18.876;2022-08-14T00:34:01;10.05;;;5.68;;
48181;SDS011;33976;47.436;18.876;2022-08-14T00:36:49;9.35;;;5.00;;
48181;SDS011;33976;47.436;18.876;2022-08-14T00:39:17;9.35;;;5.12;;
48181;SDS011;33976;47.436;18.876;2022-08-14T00:41:46;11.00;;;5.30;;
48181;SDS011;33976;47.436;18.876;2022-08-14T00:44:14;11.65;;;5.72;;
48181;SDS011;33976;47.436;18.876;2022-08-14T00:47:00;8.25;;;5.12;;
48181;SDS011;33976;47.436;18.876;2022-08-14T00:49:29;8.60;;;5.10;;
48181;SDS011;33976;47.436;18.876;2022-08-14T00:52:11;13.77;;;5.30;;
48181;SDS011;33976;47.436;18.876;2022-08-14T00:54:44;10.50;;;5.65;;
48181;SDS011;33976;47.436;18.876;2022-08-14T00:57:17;8.98;;;4.82;;
48181;SDS011;33976;47.436;18.876;2022-08-14T00:59:46;7.90;;;4.68;;
48181;SDS011;33976;47.436;18.876;2022-08-14T01:02:18;9.73;;;5.30;;
48181;SDS011;33976;47.436;18.876;2022-08-14T01:04:55;9.63;;;5.35;;
48181;SDS011;33976;47.436;18.876;2022-08-14T01:07:25;10.55;;;5.32;;
48181;SDS011;33976;47.436;18.876;2022-08-14T01:10:13;9.38;;;5.32;;
48181;SDS011;33976;47.436;18.876;2022-08-14T01:12:42;7.65;;;4.80;;
48181;SDS011;33976;47.436;18.876;2022-08-14T01:15:14;8.10;;;5.00;;
48181;SDS011;33976;47.436;18.876;2022-08-14T01:17:43;11.57;;;5.10;;
48181;SDS011;33976;47.436;18.876;2022-08-14T01:20:30;11.25;;;5.25;;
48181;SDS011;33976;47.436;18.876;2022-08-14T01:23:18;7.97;;;5.03;;
48181;SDS011;33976;47.436;18.876;2022-08-14T01:25:48;9.00;;;5.05;;
48181;SDS011;33976;47.436;18.876;2022-08-14T01:28:19;8.20;;;5.00;;
48181;SDS011;33976;47.436;18.876;2022-08-14T01:31:10;6.75;;;4.45;;
48181;SDS011;33976;47.436;18.876;2022-08-14T01:33:42;7.43;;;4.40;;
48181;SDS011;33976;47.436;18.876;2022-08-14T01:36:32;8.30;;;4.60;;
48181;SDS011;33976;47.436;18.876;2022-08-14T01:39:08;8.07;;;5.10;;
48181;SDS011;33976;47.436;18.876;2022-08-14T01:41:44;7.25;;;5.10;;
48181;SDS011;33976;47.436;18.876;2022-08-14T01:44:25;9.35;;;5.05;;
48181;SDS011;33976;47.436;18.876;2022-08-14T01:47:02;7.73;;;4.40;;
48181;SDS011;33976;47.436;18.876;2022-08-14T01:49:49;9.65;;;4.68;;
48181;SDS011;33976;47.436;18.876;2022-08-14T01:52:31;8.48;;;4.55;;
48181;SDS011;33976;47.436;18.876;2022-08-14T01:55:21;9.45;;;4.55;;
48181;SDS011;33976;47.436;18.876;2022-08-14T01:57:57;11.55;;;5.35;;
48181;SDS011;33976;47.436;18.876;2022-08-14T02:00:47;6.93;;;4.62;;
48181;SDS011;33976;47.436;18.876;2022-08-14T02:03:22;8.32;;;4.82;;
48181;SDS011;33976;47.436;18.876;2022-08-14T02:05:57;6.82;;;4.05;;
48181;SDS011;33976;47.436;18.876;2022-08-14T02:08:46;9.05;;;4.68;;
48181;SDS011;33976;47.436;18.876;2022-08-14T02:11:21;7.30;;;4.40;;
48181;SDS011;33976;47.436;18.876;2022-08-14T02:13:53;8.65;;;4.70;;
48181;SDS011;33976;47.436;18.876;2022-08-14T02:16:34;8.38;;;4.53;;
48181;SDS011;33976;47.436;18.876;2022-08-14T02:19:10;8.15;;;4.90;;
48181;SDS011;33976;47.436;18.876;2022-08-14T02:21:44;10.52;;;4.45;;
48181;SDS011;33976;47.436;18.876;2022-08-14T02:24:17;7.85;;;4.80;;
48181;SDS011;33976;47.436;18.876;2022-08-14T02:27:07;7.80;;;4.53;;
48181;SDS011;33976;47.436;18.876;2022-08-14T02:29:57;8.57;;;4.90;;
48181;SDS011;33976;47.436;18.876;2022-08-14T02:32:30;7.60;;;4.87;;
48181;SDS011;33976;47.436;18.876;2022-08-14T02:35:13;6.80;;;4.10;;
48181;SDS011;33976;47.436;18.876;2022-08-14T02:37:48;6.95;;;4.50;;
48181;SDS011;33976;47.436;18.876;2022-08-14T02:40:17;7.43;;;4.50;;
48181;SDS011;33976;47.436;18.876;2022-08-14T02:42:46;7.53;;;5.05;;
48181;SDS011;33976;47.436;18.876;2022-08-14T02:45:26;9.48;;;5.37;;
48181;SDS011;33976;47.436;18.876;2022-08-14T02:48:11;6.68;;;4.07;;
48181;SDS011;33976;47.436;18.876;2022-08-14T02:51:01;8.73;;;5.45;;
48181;SDS011;33976;47.436;18.876;2022-08-14T02:53:31;7.87;;;4.60;;
48181;SDS011;33976;47.436;18.876;2022-08-14T02:56:03;9.25;;;4.50;;
48181;SDS011;33976;47.436;18.876;2022-08-14T02:58:52;7.62;;;4.78;;
48181;SDS011;33976;47.436;18.876;2022-08-14T03:01:23;8.05;;;5.05;;
48181;SDS011;33976;47.436;18.876;2022-08-14T03:03:57;9.48;;;4.45;;
48181;SDS011;33976;47.436;18.876;2022-08-14T03:06:26;9.18;;;4.95;;
48181;SDS011;33976;47.436;18.876;2022-08-14T03:09:13;8.95;;;4.90;;
48181;SDS011;33976;47.436;18.876;2022-08-14T03:11:42;9.40;;;5.10;;
48181;SDS011;33976;47.436;18.876;2022-08-14T03:14:11;8.68;;;4.75;;
48181;SDS011;33976;47.436;18.876;2022-08-14T03:16:44;9.88;;;5.20;;
48181;SDS011;33976;47.436;18.876;2022-08-14T03:19:17;8.48;;;4.93;;
48181;SDS011;33976;47.436;18.876;2022-08-14T03:21:46;7.90;;;4.72;;
48181;SDS011;33976;47.436;18.876;2022-08-14T03:24:19;7.78;;;4.70;;
48181;SDS011;33976;47.436;18.876;2022-08-14T03:26:50;9.02;;;5.00;;
48181;SDS011;33976;47.436;18.876;2022-08-14T03:29:24;9.98;;;4.62;;
48181;SDS011;33976;47.436;18.876;2022-08-14T03:31:56;11.15;;;5.20;;
48181;SDS011;33976;47.436;18.876;2022-08-14T03:34:24;9.38;;;5.03;;
48181;SDS011;33976;47.436;18.876;2022-08-14T03:37:14;9.60;;;4.35;;
48181;SDS011;33976;47.436;18.876;2022-08-14T03:40:02;10.95;;;4.70;;
48181;SDS011;33976;47.436;18.876;2022-08-14T03:42:31;11.20;;;5.95;;
48181;SDS011;33976;47.436;18.876;2022-08-14T03:45:11;10.80;;;4.85;;
48181;SDS011;33976;47.436;18.876;2022-08-14T03:48:01;10.50;;;5.12;;
48181;SDS011;33976;47.436;18.876;2022-08-14T03:50:37;9.32;;;5.05;;
48181;SDS011;33976;47.436;18.876;2022-08-14T03:53:06;8.77;;;5.57;;
48181;SDS011;33976;47.436;18.876;2022-08-14T03:55:34;8.48;;;4.95;;
48181;SDS011;33976;47.436;18.876;2022-08-14T03:58:07;8.93;;;5.20;;
48181;SDS011;33976;47.436;18.876;2022-08-14T04:00:39;10.02;;;5.75;;
48181;SDS011;33976;47.436;18.876;2022-08-14T04:03:11;9.77;;;5.20;;
48181;SDS011;33976;47.436;18.876;2022-08-14T04:05:51;12.95;;;5.28;;
48181;SDS011;33976;47.436;18.876;2022-08-14T04:08:20;8.82;;;5.28;;
48181;SDS011;33976;47.436;18.876;2022-08-14T04:10:57;8.85;;;5.37;;
48181;SDS011;33976;47.436;18.876;2022-08-14T04:13:29;10.70;;;5.65;;
48181;SDS011;33976;47.436;18.876;2022-08-14T04:16:08;10.45;;;5.70;;
48181;SDS011;33976;47.436;18.876;2022-08-14T04:18:58;9.88;;;5.50;;
48181;SDS011;33976;47.436;18.876;2022-08-14T04:21:28;9.57;;;5.97;;
48181;SDS011;33976;47.436;18.876;2022-08-14T04:24:06;10.35;;;5.55;;
48181;SDS011;33976;47.436;18.876;2022-08-14T04:26:36;8.85;;;5.28;;
48181;SDS011;33976;47.436;18.876;2022-08-14T04:29:10;10.27;;;5.60;;
48181;SDS011;33976;47.436;18.876;2022-08-14T04:31:42;9.73;;;5.32;;
48181;SDS011;33976;47.436;18.876;2022-08-14T04:34:30;10.18;;;4.97;;
48181;SDS011;33976;47.436;18.876;2022-08-14T04:37:00;9.93;;;5.47;;
48181;SDS011;33976;47.436;18.876;2022-08-14T04:39:52;9.40;;;5.32;;
48181;SDS011;33976;47.436;18.876;2022-08-14T04:42:41;8.77;;;4.95;;
48181;SDS011;33976;47.436;18.876;2022-08-14T04:45:28;7.62;;;4.85;;
48181;SDS011;33976;47.436;18.876;2022-08-14T04:48:07;9.90;;;6.18;;
48181;SDS011;33976;47.436;18.876;2022-08-14T04:51:00;9.48;;;5.65;;
48181;SDS011;33976;47.436;18.876;2022-08-14T04:53:30;10.13;;;5.37;;
48181;SDS011;33976;47.436;18.876;2022-08-14T04:56:03;9.82;;;5.55;;
48181;SDS011;33976;47.436;18.876;2022-08-14T04:58:52;12.37;;;6.03;;
48181;SDS011;33976;47.436;18.876;2022-08-14T05:01:25;12.27;;;6.12;;
48181;SDS011;33976;47.436;18.876;2022-08-14T05:03:53;9.18;;;5.55;;
48181;SDS011;33976;47.436;18.876;2022-08-14T05:06:22;14.38;;;5.90;;
48181;SDS011;33976;47.436;18.876;2022-08-14T05:09:05;13.27;;;6.68;;
48181;SDS011;33976;47.436;18.876;2022-08-14T05:11:40;10.23;;;6.57;;
48181;SDS011;33976;47.436;18.876;2022-08-14T05:14:11;9.23;;;5.47;;
48181;SDS011;33976;47.436;18.876;2022-08-14T05:16:59;10.30;;;5.80;;
48181;SDS011;33976;47.436;18.876;2022-08-14T05:19:28;11.15;;;6.72;;
48181;SDS011;33976;47.436;18.876;2022-08-14T05:21:59;11.32;;;6.93;;
48181;SDS011;33976;47.436;18.876;2022-08-14T05:24:46;10.48;;;5.93;;
48181;SDS011;33976;47.436;18.876;2022-08-14T05:27:18;11.77;;;6.45;;
48181;SDS011;33976;47.436;18.876;2022-08-14T05:29:51;9.95;;;5.95;;
48181;SDS011;33976;47.436;18.876;2022-08-14T05:32:22;9.93;;;5.97;;
48181;SDS011;33976;47.436;18.876;2022-08-14T05:34:58;10.98;;;6.10;;
48181;SDS011;33976;47.436;18.876;2022-08-14T05:37:26;9.52;;;5.72;;
48181;SDS011;33976;47.436;18.876;2022-08-14T05:39:57;10.93;;;6.12;;
48181;SDS011;33976;47.436;18.876;2022-08-14T05:42:26;10.48;;;6.20;;
48181;SDS011;33976;47.436;18.876;2022-08-14T05:44:58;10.63;;;5.75;;
48181;SDS011;33976;47.436;18.876;2022-08-14T05:47:26;9.70;;;5.35;;
48181;SDS011;33976;47.436;18.876;2022-08-14T05:49:58;10.75;;;5.78;;
48181;SDS011;33976;47.436;18.876;2022-08-14T05:52:26;9.95;;;5.60;;
48181;SDS011;33976;47.436;18.876;2022-08-14T05:55:14;11.27;;;6.32;;
48181;SDS011;33976;47.436;18.876;2022-08-14T05:57:50;10.73;;;5.75;;
48181;SDS011;33976;47.436;18.876;2022-08-14T06:00:21;9.32;;;5.60;;
48181;SDS011;33976;47.436;18.876;2022-08-14T06:02:58;11.32;;;6.25;;
48181;SDS011;33976;47.436;18.876;2022-08-14T06:05:30;10.25;;;5.68;;
48181;SDS011;33976;47.436;18.876;2022-08-14T06:08:01;13.95;;;5.32;;
48181;SDS011;33976;47.436;18.876;2022-08-14T06:13:17;8.52;;;5.18;;
48181;SDS011;33976;47.436;18.876;2022-08-14T06:15:46;10.65;;;6.05;;
48181;SDS011;33976;47.436;18.876;2022-08-14T06:18:14;8.90;;;5.60;;
48181;SDS011;33976;47.436;18.876;2022-08-14T06:20:45;10.70;;;4.87;;
48181;SDS011;33976;47.436;18.876;2022-08-14T06:23:13;9.90;;;5.20;;
48181;SDS011;33976;47.436;18.876;2022-08-14T06:25:40;12.15;;;5.62;;
48181;SDS011;33976;47.436;18.876;2022-08-14T06:28:20;9.07;;;5.18;;
48181;SDS011;33976;47.436;18.876;2022-08-14T06:30:54;7.18;;;4.50;;
48181;SDS011;33976;47.436;18.876;2022-08-14T06:33:24;6.85;;;4.53;;
48181;SDS011;33976;47.436;18.876;2022-08-14T06:36:11;9.25;;;5.10;;
48181;SDS011;33976;47.436;18.876;2022-08-14T06:38:44;6.93;;;4.30;;
48181;SDS011;33976;47.436;18.876;2022-08-14T06:41:16;6.65;;;3.70;;
48181;SDS011;33976;47.436;18.876;2022-08-14T06:43:47;9.10;;;4.65;;
48181;SDS011;33976;47.436;18.876;2022-08-14T06:46:15;6.15;;;4.05;;
48181;SDS011;33976;47.436;18.876;2022-08-14T06:49:01;6.33;;;4.20;;
48181;SDS011;33976;47.436;18.876;2022-08-14T06:51:29;7.05;;;3.97;;
48181;SDS011;33976;47.436;18.876;2022-08-14T06:54:11;7.70;;;4.47;;
48181;SDS011;33976;47.436;18.876;2022-08-14T06:56:39;7.30;;;4.45;;
48181;SDS011;33976;47.436;18.876;2022-08-14T06:59:20;7.22;;;4.45;;
48181;SDS011;33976;47.436;18.876;2022-08-14T07:01:48;7.93;;;4.25;;
48181;SDS011;33976;47.436;18.876;2022-08-14T07:04:44;7.60;;;4.32;;
48181;SDS011;33976;47.436;18.876;2022-08-14T07:07:36;7.03;;;4.30;;
48181;SDS011;33976;47.436;18.876;2022-08-14T07:10:06;8.55;;;4.55;;
48181;SDS011;33976;47.436;18.876;2022-08-14T07:12:43;5.80;;;3.65;;
48181;SDS011;33976;47.436;18.876;2022-08-14T07:15:29;8.60;;;4.47;;
48181;SDS011;33976;47.436;18.876;2022-08-14T07:18:00;8.18;;;4.60;;
48181;SDS011;33976;47.436;18.876;2022-08-14T07:20:35;8.80;;;4.27;;
48181;SDS011;33976;47.436;18.876;2022-08-14T07:23:04;7.75;;;4.47;;
48181;SDS011;33976;47.436;18.876;2022-08-14T07:25:38;6.30;;;3.92;;
48181;SDS011;33976;47.436;18.876;2022-08-14T07:28:14;7.28;;;4.30;;
48181;SDS011;33976;47.436;18.876;2022-08-14T07:30:51;7.70;;;4.07;;
48181;SDS011;33976;47.436;18.876;2022-08-14T07:33:39;8.80;;;4.37;;
48181;SDS011;33976;47.436;18.876;2022-08-14T07:36:18;6.95;;;4.07;;
48181;SDS011;33976;47.436;18.876;2022-08-14T07:38:57;6.80;;;4.47;;
48181;SDS011;33976;47.436;18.876;2022-08-14T07:41:27;9.00;;;4.82;;
48181;SDS011;33976;47.436;18.876;2022-08-14T07:44:00;8.27;;;4.57;;
48181;SDS011;33976;47.436;18.876;2022-08-14T07:46:49;6.43;;;4.07;;
48181;SDS011;33976;47.436;18.876;2022-08-14T07:49:17;6.68;;;3.97;;
48181;SDS011;33976;47.436;18.876;2022-08-14T07:51:46;12.35;;;4.80;;
48181;SDS011;33976;47.436;18.876;2022-08-14T07:54:17;8.80;;;4.20;;
48181;SDS011;33976;47.436;18.876;2022-08-14T07:56:57;6.57;;;4.70;;
48181;SDS011;33976;47.436;18.876;2022-08-14T07:59:32;8.27;;;5.00;;
48181;SDS011;33976;47.436;18.876;2022-08-14T08:02:10;7.07;;;4.78;;
48181;SDS011;33976;47.436;18.876;2022-08-14T08:04:48;8.35;;;4.25;;
48181;SDS011;33976;47.436;18.876;2022-08-14T08:07:21;7.32;;;4.65;;
48181;SDS011;33976;47.436;18.876;2022-08-14T08:09:58;6.50;;;4.25;;
48181;SDS011;33976;47.436;18.876;2022-08-14T08:12:28;6.45;;;4.28;;
48181;SDS011;33976;47.436;18.876;2022-08-14T08:14:59;6.72;;;4.28;;
48181;SDS011;33976;47.436;18.876;2022-08-14T08:17:36;7.22;;;4.53;;
48181;SDS011;33976;47.436;18.876;2022-08-14T08:20:22;6.12;;;4.12;;
48181;SDS011;33976;47.436;18.876;2022-08-14T08:22:55;5.75;;;3.70;;
48181;SDS011;33976;47.436;18.876;2022-08-14T08:25:34;7.00;;;4.10;;
48181;SDS011;33976;47.436;18.876;2022-08-14T08:28:11;6.87;;;4.40;;
48181;SDS011;33976;47.436;18.876;2022-08-14T08:30:52;7.28;;;4.10;;
48181;SDS011;33976;47.436;18.876;2022-08-14T08:33:27;6.85;;;4.60;;
48181;SDS011;33976;47.436;18.876;2022-08-14T08:35:59;7.53;;;4.00;;
48181;SDS011;33976;47.436;18.876;2022-08-14T08:38:29;6.95;;;4.35;;
48181;SDS011;33976;47.436;18.876;2022-08-14T08:41:18;9.07;;;4.00;;
48181;SDS011;33976;47.436;18.876;2022-08-14T08:43:46;7.72;;;4.03;;
48181;SDS011;33976;47.436;18.876;2022-08-14T08:46:18;9.25;;;4.30;;
48181;SDS011;33976;47.436;18.876;2022-08-14T08:48:51;6.80;;;4.43;;
48181;SDS011;33976;47.436;18.876;2022-08-14T08:51:24;6.93;;;4.10;;
48181;SDS011;33976;47.436;18.876;2022-08-14T08:54:10;6.25;;;3.80;;
48181;SDS011;33976;47.436;18.876;2022-08-14T08:59:28;6.05;;;4.12;;
48181;SDS011;33976;47.436;18.876;2022-08-14T09:02:02;8.02;;;4.22;;
48181;SDS011;33976;47.436;18.876;2022-08-14T09:07:26;7.93;;;4.83;;
48181;SDS011;33976;47.436;18.876;2022-08-14T09:09:54;9.93;;;4.70;;
48181;SDS011;33976;47.436;18.876;2022-08-14T09:12:27;6.65;;;3.92;;
48181;SDS011;33976;47.436;18.876;2022-08-14T09:15:03;7.82;;;4.45;;
48181;SDS011;33976;47.436;18.876;2022-08-14T09:17:39;6.40;;;4.53;;
48181;SDS011;33976;47.436;18.876;2022-08-14T09:20:09;7.15;;;4.22;;
48181;SDS011;33976;47.436;18.876;2022-08-14T09:22:39;6.60;;;4.37;;
48181;SDS011;33976;47.436;18.876;2022-08-14T09:25:15;6.78;;;4.28;;
48181;SDS011;33976;47.436;18.876;2022-08-14T09:28:03;7.25;;;3.97;;
48181;SDS011;33976;47.436;18.876;2022-08-14T09:30:33;6.78;;;4.22;;
48181;SDS011;33976;47.436;18.876;2022-08-14T09:35:59;9.30;;;4.32;;
48181;SDS011;33976;47.436;18.876;2022-08-14T09:38:46;7.03;;;4.40;;
48181;SDS011;33976;47.436;18.876;2022-08-14T09:42:06;8.63;;;4.32;;
48181;SDS011;33976;47.436;18.876;2022-08-14T09:47:53;5.22;;;3.65;;
48181;SDS011;33976;47.436;18.876;2022-08-14T09:52:57;6.10;;;3.97;;
48181;SDS011;33976;47.436;18.876;2022-08-14T09:55:32;7.18;;;4.45;;
48181;SDS011;33976;47.436;18.876;2022-08-14T09:58:11;5.28;;;3.62;;
48181;SDS011;33976;47.436;18.876;2022-08-14T10:00:47;5.18;;;3.62;;
48181;SDS011;33976;47.436;18.876;2022-08-14T10:03:31;6.28;;;3.75;;
48181;SDS011;33976;47.436;18.876;2022-08-14T10:11:21;5.87;;;3.83;;
48181;SDS011;33976;47.436;18.876;2022-08-14T10:14:11;6.60;;;4.25;;
48181;SDS011;33976;47.436;18.876;2022-08-14T10:17:02;6.15;;;4.03;;
48181;SDS011;33976;47.436;18.876;2022-08-14T10:19:34;6.20;;;3.80;;
48181;SDS011;33976;47.436;18.876;2022-08-14T10:22:04;6.75;;;3.70;;
48181;SDS011;33976;47.436;18.876;2022-08-14T10:24:56;6.05;;;3.75;;
48181;SDS011;33976;47.436;18.876;2022-08-14T10:27:27;5.80;;;3.90;;
48181;SDS011;33976;47.436;18.876;2022-08-14T10:29:56;6.57;;;3.35;;
48181;SDS011;33976;47.436;18.876;2022-08-14T10:32:27;4.47;;;2.95;;
48181;SDS011;33976;47.436;18.876;2022-08-14T10:35:15;4.20;;;2.80;;
48181;SDS011;33976;47.436;18.876;2022-08-14T10:37:45;8.40;;;3.83;;
48181;SDS011;33976;47.436;18.876;2022-08-14T10:40:26;5.82;;;3.40;;
48181;SDS011;33976;47.436;18.876;2022-08-14T10:43:21;6.00;;;3.50;;
48181;SDS011;33976;47.436;18.876;2022-08-14T10:45:56;6.00;;;3.60;;
48181;SDS011;33976;47.436;18.876;2022-08-14T10:48:58;8.15;;;3.72;;
48181;SDS011;33976;47.436;18.876;2022-08-14T10:51:31;6.05;;;3.83;;
48181;SDS011;33976;47.436;18.876;2022-08-14T10:54:06;7.40;;;3.78;;
48181;SDS011;33976;47.436;18.876;2022-08-14T10:56:56;6.47;;;3.75;;
48181;SDS011;33976;47.436;18.876;2022-08-14T10:59:47;5.10;;;3.40;;
48181;SDS011;33976;47.436;18.876;2022-08-14T11:02:27;4.97;;;3.08;;
48181;SDS011;33976;47.436;18.876;2022-08-14T11:05:23;4.90;;;3.22;;
48181;SDS011;33976;47.436;18.876;2022-08-14T11:10:24;4.95;;;3.35;;
48181;SDS011;33976;47.436;18.876;2022-08-14T11:13:09;4.68;;;3.10;;
48181;SDS011;33976;47.436;18.876;2022-08-14T11:15:43;5.10;;;3.47;;
48181;SDS011;33976;47.436;18.876;2022-08-14T11:18:12;5.43;;;3.62;;
48181;SDS011;33976;47.436;18.876;2022-08-14T11:20:58;4.30;;;3.08;;
48181;SDS011;33976;47.436;18.876;2022-08-14T11:23:29;5.47;;;3.45;;
48181;SDS011;33976;47.436;18.876;2022-08-14T11:26:06;5.28;;;3.62;;
48181;SDS011;33976;47.436;18.876;2022-08-14T11:28:37;7.53;;;3.58;;
48181;SDS011;33976;47.436;18.876;2022-08-14T11:31:19;5.82;;;3.55;;
48181;SDS011;33976;47.436;18.876;2022-08-14T11:33:50;5.40;;;3.40;;
48181;SDS011;33976;47.436;18.876;2022-08-14T11:36:26;6.35;;;3.20;;
48181;SDS011;33976;47.436;18.876;2022-08-14T11:39:20;5.40;;;3.70;;
48181;SDS011;33976;47.436;18.876;2022-08-14T11:42:01;5.40;;;3.58;;
48181;SDS011;33976;47.436;18.876;2022-08-14T11:44:50;5.72;;;3.67;;
48181;SDS011;33976;47.436;18.876;2022-08-14T11:47:23;6.30;;;4.00;;
48181;SDS011;33976;47.436;18.876;2022-08-14T11:49:52;6.70;;;3.50;;
48181;SDS011;33976;47.436;18.876;2022-08-14T11:52:20;4.80;;;3.45;;
48181;SDS011;33976;47.436;18.876;2022-08-14T11:54:56;4.95;;;3.80;;
48181;SDS011;33976;47.436;18.876;2022-08-14T11:57:25;5.10;;;3.37;;
48181;SDS011;33976;47.436;18.876;2022-08-14T12:00:00;4.82;;;3.03;;
48181;SDS011;33976;47.436;18.876;2022-08-14T12:02:35;8.13;;;4.03;;
48181;SDS011;33976;47.436;18.876;2022-08-14T12:05:33;4.90;;;3.12;;
48181;SDS011;33976;47.436;18.876;2022-08-14T12:08:03;4.95;;;3.03;;
48181;SDS011;33976;47.436;18.876;2022-08-14T12:10:40;5.62;;;3.95;;
48181;SDS011;33976;47.436;18.876;2022-08-14T12:13:13;7.82;;;3.55;;
48181;SDS011;33976;47.436;18.876;2022-08-14T12:15:44;4.78;;;3.40;;
48181;SDS011;33976;47.436;18.876;2022-08-14T12:18:27;6.80;;;4.20;;
48181;SDS011;33976;47.436;18.876;2022-08-14T12:20:56;6.07;;;3.62;;
48181;SDS011;33976;47.436;18.876;2022-08-14T12:23:26;6.53;;;3.65;;
48181;SDS011;33976;47.436;18.876;2022-08-14T12:26:01;6.22;;;3.67;;
48181;SDS011;33976;47.436;18.876;2022-08-14T12:28:51;5.47;;;3.83;;
48181;SDS011;33976;47.436;18.876;2022-08-14T12:31:26;5.18;;;3.22;;
48181;SDS011;33976;47.436;18.876;2022-08-14T12:34:03;5.35;;;3.50;;
48181;SDS011;33976;47.436;18.876;2022-08-14T12:36:36;5.30;;;3.37;;
48181;SDS011;33976;47.436;18.876;2022-08-14T12:39:19;5.18;;;3.50;;
48181;SDS011;33976;47.436;18.876;2022-08-14T12:41:51;6.05;;;3.70;;
48181;SDS011;33976;47.436;18.876;2022-08-14T12:44:37;6.15;;;3.45;;
48181;SDS011;33976;47.436;18.876;2022-08-14T12:47:07;6.90;;;5.15;;
48181;SDS011;33976;47.436;18.876;2022-08-14T12:49:51;7.43;;;3.92;;
48181;SDS011;33976;47.436;18.876;2022-08-14T12:55:13;5.22;;;3.83;;
48181;SDS011;33976;47.436;18.876;2022-08-14T12:57:45;6.37;;;4.10;;
48181;SDS011;33976;47.436;18.876;2022-08-14T13:00:21;6.18;;;3.62;;
48181;SDS011;33976;47.436;18.876;2022-08-14T13:02:52;5.32;;;3.70;;
48181;SDS011;33976;47.436;18.876;2022-08-14T13:05:24;4.90;;;3.55;;
48181;SDS011;33976;47.436;18.876;2022-08-14T13:07:56;6.85;;;3.80;;
48181;SDS011;33976;47.436;18.876;2022-08-14T13:10:26;8.70;;;3.92;;
48181;SDS011;33976;47.436;18.876;2022-08-14T13:13:15;7.55;;;3.85;;
48181;SDS011;33976;47.436;18.876;2022-08-14T13:15:45;5.07;;;3.78;;
48181;SDS011;33976;47.436;18.876;2022-08-14T13:18:22;5.72;;;3.70;;
48181;SDS011;33976;47.436;18.876;2022-08-14T13:20:54;6.07;;;3.92;;
48181;SDS011;33976;47.436;18.876;2022-08-14T13:23:31;6.45;;;3.75;;
48181;SDS011;33976;47.436;18.876;2022-08-14T13:26:03;7.43;;;3.92;;
48181;SDS011;33976;47.436;18.876;2022-08-14T13:28:34;5.00;;;3.47;;
48181;SDS011;33976;47.436;18.876;2022-08-14T13:31:28;5.20;;;3.35;;
48181;SDS011;33976;47.436;18.876;2022-08-14T13:34:12;5.97;;;4.28;;
48181;SDS011;33976;47.436;18.876;2022-08-14T13:36:41;7.05;;;3.53;;
48181;SDS011;33976;47.436;18.876;2022-08-14T13:39:25;5.70;;;3.70;;
48181;SDS011;33976;47.436;18.876;2022-08-14T13:41:54;5.35;;;3.90;;
48181;SDS011;33976;47.436;18.876;2022-08-14T13:44:25;5.10;;;3.40;;
48181;SDS011;33976;47.436;18.876;2022-08-14T13:46:55;4.87;;;3.30;;
48181;SDS011;33976;47.436;18.876;2022-08-14T13:49:24;6.68;;;4.00;;
48181;SDS011;33976;47.436;18.876;2022-08-14T13:51:55;6.03;;;3.53;;
48181;SDS011;33976;47.436;18.876;2022-08-14T13:54:25;5.75;;;3.40;;
48181;SDS011;33976;47.436;18.876;2022-08-14T13:57:02;6.97;;;3.53;;
48181;SDS011;33976;47.436;18.876;2022-08-14T13:59:42;6.72;;;4.00;;
48181;SDS011;33976;47.436;18.876;2022-08-14T14:02:17;6.53;;;3.90;;
48181;SDS011;33976;47.436;18.876;2022-08-14T14:04:58;5.25;;;3.33;;
48181;SDS011;33976;47.436;18.876;2022-08-14T14:07:27;8.05;;;5.32;;
48181;SDS011;33976;47.436;18.876;2022-08-14T14:10:00;4.18;;;2.95;;
48181;SDS011;33976;47.436;18.876;2022-08-14T14:12:33;7.78;;;5.65;;
48181;SDS011;33976;47.436;18.876;2022-08-14T14:15:22;5.90;;;4.00;;
48181;SDS011;33976;47.436;18.876;2022-08-14T14:18:10;5.43;;;3.20;;
48181;SDS011;33976;47.436;18.876;2022-08-14T14:21:00;4.50;;;3.00;;
48181;SDS011;33976;47.436;18.876;2022-08-14T14:23:28;4.72;;;3.25;;
48181;SDS011;33976;47.436;18.876;2022-08-14T14:25:58;4.72;;;3.00;;
48181;SDS011;33976;47.436;18.876;2022-08-14T14:28:28;5.28;;;3.62;;
48181;SDS011;33976;47.436;18.876;2022-08-14T14:30:58;5.30;;;3.55;;
48181;SDS011;33976;47.436;18.876;2022-08-14T14:33:34;4.40;;;3.20;;
48181;SDS011;33976;47.436;18.876;2022-08-14T14:36:25;7.12;;;3.10;;
48181;SDS011;33976;47.436;18.876;2022-08-14T14:38:56;4.25;;;2.90;;
48181;SDS011;33976;47.436;18.876;2022-08-14T14:41:27;4.60;;;3.25;;
48181;SDS011;33976;47.436;18.876;2022-08-14T14:44:11;6.00;;;3.50;;
48181;SDS011;33976;47.436;18.876;2022-08-14T14:46:42;4.65;;;3.00;;
48181;SDS011;33976;47.436;18.876;2022-08-14T14:49:17;5.65;;;3.00;;
48181;SDS011;33976;47.436;18.876;2022-08-14T14:51:48;4.60;;;2.85;;
48181;SDS011;33976;47.436;18.876;2022-08-14T14:54:19;5.05;;;3.03;;
48181;SDS011;33976;47.436;18.876;2022-08-14T14:56:58;4.47;;;3.25;;
48181;SDS011;33976;47.436;18.876;2022-08-14T14:59:29;4.57;;;2.67;;
48181;SDS011;33976;47.436;18.876;2022-08-14T15:02:03;4.57;;;2.80;;
48181;SDS011;33976;47.436;18.876;2022-08-14T15:04:36;3.55;;;2.50;;
48181;SDS011;33976;47.436;18.876;2022-08-14T15:07:10;4.22;;;2.53;;
48181;SDS011;33976;47.436;18.876;2022-08-14T15:09:39;4.65;;;2.90;;
48181;SDS011;33976;47.436;18.876;2022-08-14T15:12:07;4.75;;;2.90;;
48181;SDS011;33976;47.436;18.876;2022-08-14T15:14:55;3.97;;;2.80;;
48181;SDS011;33976;47.436;18.876;2022-08-14T15:17:36;4.30;;;2.85;;
48181;SDS011;33976;47.436;18.876;2022-08-14T15:20:09;3.97;;;2.87;;
48181;SDS011;33976;47.436;18.876;2022-08-14T15:22:56;4.37;;;3.00;;
48181;SDS011;33976;47.436;18.876;2022-08-14T15:25:25;4.05;;;2.60;;
48181;SDS011;33976;47.436;18.876;2022-08-14T15:27:58;3.40;;;2.50;;
48181;SDS011;33976;47.436;18.876;2022-08-14T15:30:28;3.45;;;2.45;;
48181;SDS011;33976;47.436;18.876;2022-08-14T15:32:59;5.20;;;2.90;;
48181;SDS011;33976;47.436;18.876;2022-08-14T15:35:26;3.80;;;2.45;;
48181;SDS011;33976;47.436;18.876;2022-08-14T15:38:00;6.70;;;3.58;;
48181;SDS011;33976;47.436;18.876;2022-08-14T15:40:36;4.65;;;3.03;;
48181;SDS011;33976;47.436;18.876;2022-08-14T15:43:08;4.03;;;2.62;;
48181;SDS011;33976;47.436;18.876;2022-08-14T15:45:42;4.77;;;2.90;;
48181;SDS011;33976;47.436;18.876;2022-08-14T15:48:10;5.82;;;3.10;;
48181;SDS011;33976;47.436;18.876;2022-08-14T15:50:49;7.72;;;2.87;;
48181;SDS011;33976;47.436;18.876;2022-08-14T15:53:18;4.65;;;2.80;;
48181;SDS011;33976;47.436;18.876;2022-08-14T15:55:49;3.72;;;2.60;;
48181;SDS011;33976;47.436;18.876;2022-08-14T15:58:20;4.62;;;2.90;;